Time;durP1;ratioP1;P1;durP2;ratioP2;P2;SDS_P1;SDS_P2;PMS_P1;PMS_P2;Temp;Humidity;BMP_temperature;BMP_pressure;BME280_temperature;BME280_humidity;BME280_pressure;Samples;Min_cycle;Max_cycle;Signal;HPM_P1;HPM_P2
2022/07/08 00:00:37;;;;;;;1.57;0.70;;;;;;;23.31;100.00;99669.77;1738210;82;21040;-74
2022/07/08 00:03:03;;;;;;;1.10;1.00;;;;;;;23.33;100.00;99665.95;1738198;82;20978;-72
2022/07/08 00:05:33;;;;;;;1.20;0.80;;;;;;;23.33;100.00;99669.58;1738305;82;20910;-75
2022/07/08 00:08:00;;;;;;;2.20;1.30;;;;;;;23.26;100.00;99662.56;1738232;82;20942;-75
2022/07/08 00:10:29;;;;;;;0.95;0.88;;;;;;;23.25;100.00;99675.02;1738120;82;21000;-75
2022/07/08 00:12:56;;;;;;;5.08;1.10;;;;;;;23.26;100.00;99683.63;1738635;82;21318;-75
2022/07/08 00:15:23;;;;;;;3.52;1.55;;;;;;;23.35;100.00;99695.87;1738114;82;20981;-74
2022/07/08 00:17:49;;;;;;;6.15;1.32;;;;;;;23.39;100.00;99703.68;1738678;82;21084;-76
2022/07/08 00:20:21;;;;;;;1.25;1.12;;;;;;;23.41;100.00;99700.49;1738271;82;20949;-75
2022/07/08 00:22:48;;;;;;;1.82;1.07;;;;;;;23.42;100.00;99706.33;1738230;82;21557;-75
2022/07/08 00:25:17;;;;;;;2.35;0.72;;;;;;;23.47;100.00;99705.92;1738266;82;21011;-75
2022/07/08 00:27:45;;;;;;;2.98;0.80;;;;;;;23.45;100.00;99706.92;1738173;82;20985;-74
2022/07/08 00:30:12;;;;;;;3.75;0.90;;;;;;;23.40;100.00;99705.89;1738564;82;21678;-73
2022/07/08 00:32:42;;;;;;;3.52;1.05;;;;;;;23.38;100.00;99717.55;1738169;82;20889;-75
2022/07/08 00:35:09;;;;;;;2.90;0.98;;;;;;;23.36;100.00;99710.11;1738199;82;21008;-75
2022/07/08 00:37:38;;;;;;;1.70;0.82;;;;;;;23.35;100.00;99706.48;1738078;82;21011;-74
2022/07/08 00:40:07;;;;;;;1.95;1.02;;;;;;;23.30;100.00;99711.11;1738248;82;21107;-72
2022/07/08 00:42:36;;;;;;;1.07;0.80;;;;;;;23.30;100.00;99713.92;1738203;82;21141;-76
2022/07/08 00:45:06;;;;;;;2.45;1.10;;;;;;;23.34;100.00;99718.14;1737999;82;21088;-73
2022/07/08 00:47:34;;;;;;;1.45;0.93;;;;;;;23.39;100.00;99722.57;1738289;82;20942;-75
2022/07/08 00:50:01;;;;;;;1.00;0.90;;;;;;;23.27;100.00;99735.03;1738168;82;21005;-76
2022/07/08 00:52:31;;;;;;;2.35;1.35;;;;;;;23.30;100.00;99730.78;1749849;79;21048;-74
2022/07/08 00:54:58;;;;;;;2.00;1.10;;;;;;;23.31;100.00;99736.63;1785057;80;22124;-74
2022/07/08 00:57:28;;;;;;;1.80;0.90;;;;;;;23.32;100.00;99731.19;1785100;80;21067;-75
2022/07/08 00:59:58;;;;;;;4.08;1.27;;;;;;;23.32;100.00;99719.95;1757224;80;20929;-75
2022/07/08 01:02:29;;;;;;;3.47;1.00;;;;;;;23.31;100.00;99715.55;1784401;80;21033;-73
2022/07/08 01:04:57;;;;;;;1.37;1.07;;;;;;;23.20;100.00;99719.76;1785099;80;21066;-76
2022/07/08 01:07:24;;;;;;;1.40;1.00;;;;;;;23.18;100.00;99715.77;1784981;80;21123;-75
2022/07/08 01:09:52;;;;;;;1.57;0.95;;;;;;;23.19;100.00;99714.55;1784755;80;21521;-73
2022/07/08 01:12:19;;;;;;;2.17;1.05;;;;;;;23.12;100.00;99713.13;1785741;80;21476;-75
2022/07/08 01:14:50;;;;;;;3.95;1.10;;;;;;;23.03;100.00;99711.53;1784673;80;21485;-73
2022/07/08 01:17:18;;;;;;;6.92;1.00;;;;;;;23.02;100.00;99716.97;1784588;80;21504;-72
2022/07/08 01:19:46;;;;;;;1.65;0.82;;;;;;;23.03;100.00;99716.38;1784891;80;21030;-69
2022/07/08 01:22:14;;;;;;;0.85;0.75;;;;;;;23.06;100.00;99715.56;1784820;80;21000;-73
2022/07/08 01:24:41;;;;;;;4.80;1.20;;;;;;;23.06;100.00;99716.97;1784801;80;21034;-74
2022/07/08 01:27:10;;;;;;;2.15;0.93;;;;;;;23.06;100.00;99718.37;1785032;80;21028;-72
2022/07/08 01:29:37;;;;;;;3.35;1.07;;;;;;;23.22;100.00;99717.95;1784986;80;20969;-74
2022/07/08 01:32:08;;;;;;;3.05;1.10;;;;;;;23.21;100.00;99731.81;1785150;80;21024;-75
2022/07/08 01:34:36;;;;;;;1.85;0.95;;;;;;;23.20;100.00;99730.22;1784857;80;21485;-75
2022/07/08 01:37:06;;;;;;;3.45;0.72;;;;;;;23.18;100.00;99728.41;1784977;80;21035;-74
2022/07/08 01:39:33;;;;;;;1.87;1.25;;;;;;;23.04;100.00;99727.20;1785152;80;22320;-70
2022/07/08 01:42:03;;;;;;;1.98;1.25;;;;;;;22.95;100.00;99723.98;1785317;80;20961;-75
2022/07/08 01:44:29;;;;;;;4.15;1.47;;;;;;;22.91;100.00;99722.56;1784774;80;21132;-74
2022/07/08 01:46:56;;;;;;;4.62;1.72;;;;;;;22.89;100.00;99719.97;1785083;80;21028;-75
2022/07/08 01:49:22;;;;;;;2.62;1.70;;;;;;;22.95;100.00;99724.79;1785550;80;20885;-74
2022/07/08 01:51:52;;;;;;;5.03;1.75;;;;;;;22.99;100.00;99724.80;1785035;80;21012;-75
2022/07/08 01:54:22;;;;;;;3.17;1.57;;;;;;;23.04;100.00;99724.98;1784962;80;21028;-74
2022/07/08 01:57:13;;;;;;;3.52;1.60;;;;;;;23.01;100.00;99729.42;1784796;80;21802;-77
2022/07/08 01:59:21;;;;;;;2.72;1.55;;;;;;;23.01;100.00;99725.20;1780652;80;21016;-74
2022/07/08 02:01:47;;;;;;;3.05;1.32;;;;;;;23.01;100.00;99716.77;1785040;80;21028;-74
2022/07/08 02:04:15;;;;;;;2.25;0.98;;;;;;;22.92;100.00;99717.77;1751793;80;21012;-74
2022/07/08 02:06:42;;;;;;;1.67;1.20;;;;;;;23.04;100.00;99714.56;1784716;80;21452;-74
2022/07/08 02:09:10;;;;;;;4.97;2.35;;;;;;;23.00;100.00;99713.75;1785354;80;21230;-74
2022/07/08 02:14:24;;;;;;;3.70;1.27;;;;;;;23.06;100.00;99696.71;1785185;80;20996;-72
2022/07/08 02:16:50;;;;;;;4.58;1.30;;;;;;;23.20;100.00;99695.09;1785490;80;21492;-73
2022/07/08 02:19:19;;;;;;;0.85;0.82;;;;;;;23.26;100.00;99706.11;1785087;80;21015;-71
2022/07/08 02:21:45;;;;;;;7.83;1.22;;;;;;;23.29;100.00;99717.95;1785049;80;21537;-73
2022/07/08 02:24:13;;;;;;;3.20;1.30;;;;;;;23.30;100.00;99727.97;1784892;80;21440;-75
2022/07/08 02:26:46;;;;;;;2.15;1.10;;;;;;;23.25;100.00;99727.00;1785110;80;21020;-72
2022/07/08 02:29:17;;;;;;;4.10;1.57;;;;;;;23.17;100.00;99719.76;1785331;80;20944;-72
2022/07/08 02:31:45;;;;;;;1.95;1.45;;;;;;;23.12;100.00;99715.95;1785290;80;20903;-73
2022/07/08 02:34:22;;;;;;;5.20;1.80;;;;;;;23.05;100.00;99727.98;1757763;80;21058;-74
2022/07/08 02:36:52;;;;;;;10.43;2.20;;;;;;;22.91;100.00;99723.19;1770021;80;21076;-70
2022/07/08 02:39:22;;;;;;;5.20;2.00;;;;;;;22.56;100.00;99722.11;1775660;80;21017;-75
2022/07/08 02:41:55;;;;;;;;;;;;;;;22.45;100.00;99724.09;1746644;82;21093;-73
2022/07/08 02:44:25;;;;;;;5.75;1.42;;;;;;;22.36;100.00;99719.66;1720198;82;20162;-75
2022/07/08 02:46:51;;;;;;;3.55;1.30;;;;;;;22.30;100.00;99720.42;1745044;82;21222;-75
2022/07/08 02:49:20;;;;;;;3.90;1.20;;;;;;;22.30;100.00;99724.04;1744646;82;21053;-75
2022/07/08 02:51:46;;;;;;;3.98;1.20;;;;;;;22.29;100.00;99719.64;1759385;80;21080;-74
2022/07/08 02:54:15;;;;;;;1.87;1.35;;;;;;;22.33;100.00;99728.85;1762415;80;21003;-71
2022/07/08 02:56:41;;;;;;;4.67;1.57;;;;;;;22.45;100.00;99726.91;1755124;80;21042;-75
2022/07/08 02:59:08;;;;;;;3.35;2.00;;;;;;;22.54;100.00;99725.09;1754671;81;21472;-73
2022/07/08 03:01:39;;;;;;;3.85;1.95;;;;;;;22.53;100.00;99720.69;1736276;82;20972;-73
2022/07/08 03:04:06;;;;;;;5.40;2.12;;;;;;;22.57;100.00;99722.92;1736828;82;21079;-75
2022/07/08 03:06:34;;;;;;;6.28;1.85;;;;;;;22.58;100.00;99723.11;1736114;82;21007;-73
2022/07/08 03:09:01;;;;;;;6.22;1.87;;;;;;;22.51;100.00;99726.70;1742185;81;21452;-76
2022/07/08 03:11:30;;;;;;;6.75;1.85;;;;;;;22.46;100.00;99727.09;1701810;83;21203;-76
2022/07/08 03:13:58;;;;;;;3.95;1.60;;;;;;;22.46;100.00;99729.91;1730030;83;20999;-74
2022/07/08 03:16:25;;;;;;;2.12;1.30;;;;;;;22.40;100.00;99736.48;1748820;82;21019;-70
2022/07/08 03:18:52;;;;;;;7.10;1.87;;;;;;;22.47;100.00;99742.13;1730862;82;21039;-75
2022/07/08 03:21:19;;;;;;;2.98;1.62;;;;;;;22.54;100.00;99745.55;1753768;81;21469;-76
2022/07/08 03:23:47;;;;;;;1.90;1.40;;;;;;;22.54;100.00;99745.55;1755225;81;21803;-70
2022/07/08 03:26:14;;;;;;;5.00;1.60;;;;;;;22.53;100.00;99743.96;1766261;81;21537;-74
2022/07/08 03:28:41;;;;;;;4.85;1.77;;;;;;;22.49;100.00;99740.33;1754870;81;21474;-75
2022/07/08 03:31:12;;;;;;;2.62;1.12;;;;;;;22.48;100.00;99741.54;1754335;81;21586;-70
2022/07/08 03:33:40;;;;;;;1.80;1.22;;;;;;;22.52;100.00;99745.77;1752902;81;21027;-73
2022/07/08 03:36:11;;;;;;;1.57;1.17;;;;;;;22.57;100.00;99743.35;1749750;81;21090;-72
2022/07/08 03:38:40;;;;;;;2.58;1.40;;;;;;;22.61;100.00;99738.59;1750443;81;21063;-74
2022/07/08 03:41:20;;;;;;;2.30;1.00;;;;;;;22.74;100.00;99749.42;1750991;81;21606;-72
2022/07/08 03:43:51;;;;;;;4.25;1.77;;;;;;;22.84;100.00;99742.24;1752458;81;21058;-70
2022/07/08 03:46:20;;;;;;;3.65;1.30;;;;;;;22.86;100.00;99741.22;1723573;82;21051;-71
2022/07/08 03:48:47;;;;;;;1.40;1.07;;;;;;;22.88;100.00;99737.41;1701158;82;21660;-73
2022/07/08 03:51:15;;;;;;;1.57;1.10;;;;;;;22.89;100.00;99735.42;1724895;83;20953;-71
2022/07/08 03:53:44;;;;;;;3.37;1.00;;;;;;;22.99;100.00;99740.25;1717736;83;20996;-73
2022/07/08 03:56:12;;;;;;;2.05;1.20;;;;;;;23.05;100.00;99741.44;1774359;80;21500;-75
2022/07/08 03:58:38;;;;;;;3.70;1.10;;;;;;;23.08;100.00;99742.04;1768883;80;20984;-73
2022/07/08 04:01:08;;;;;;;5.72;1.12;;;;;;;23.10;100.00;99742.45;1759597;81;21989;-74
2022/07/08 04:03:34;;;;;;;0.85;0.80;;;;;;;23.15;100.00;99737.64;1748682;81;21118;-72
2022/07/08 04:06:02;;;;;;;2.12;1.02;;;;;;;23.15;100.00;99734.21;1741231;81;20953;-73
2022/07/08 04:08:31;;;;;;;1.35;0.93;;;;;;;23.21;100.00;99733.22;1739816;81;21457;-73
2022/07/08 04:11:03;;;;;;;2.10;1.20;;;;;;;23.23;100.00;99735.03;1742201;81;21083;-75
2022/07/08 04:13:33;;;;;;;4.15;1.00;;;;;;;23.29;100.00;99730.59;1747263;80;21121;-70
2022/07/08 04:16:00;;;;;;;2.40;1.00;;;;;;;23.35;100.00;99725.38;1745859;81;20989;-74
2022/07/08 04:18:29;;;;;;;1.37;1.02;;;;;;;23.39;100.00;99728.97;1746467;81;21043;-75
2022/07/08 04:20:55;;;;;;;4.20;1.10;;;;;;;23.42;100.00;99733.03;1767134;80;21132;-73
2022/07/08 04:23:26;;;;;;;5.62;1.37;;;;;;;23.40;100.00;99731.19;1773635;80;21102;-70
2022/07/08 04:25:53;;;;;;;2.72;1.27;;;;;;;23.38;100.00;99727.97;1775908;80;21494;-71
2022/07/08 04:28:24;;;;;;;2.95;0.98;;;;;;;23.36;100.00;99731.19;1771091;80;21063;-74
2022/07/08 04:30:57;;;;;;;2.58;1.17;;;;;;;23.37;100.00;99732.81;1768978;80;21124;-72
2022/07/08 04:33:25;;;;;;;1.90;1.30;;;;;;;23.37;100.00;99731.41;1769681;80;20972;-75
2022/07/08 04:35:53;;;;;;;2.87;1.47;;;;;;;23.40;100.00;99734.84;1774184;80;21064;-75
2022/07/08 04:38:19;;;;;;;1.32;1.20;;;;;;;23.52;100.00;99737.03;1773746;79;21454;-75
2022/07/08 04:40:49;;;;;;;2.42;1.35;;;;;;;23.60;100.00;99740.02;1775930;80;21043;-72
2022/07/08 04:43:15;;;;;;;3.80;1.47;;;;;;;23.64;100.00;99742.23;1772102;80;20941;-73
2022/07/08 04:45:43;;;;;;;2.17;1.30;;;;;;;23.62;100.00;99746.64;1751157;80;21045;-73
2022/07/08 04:48:13;;;;;;;2.75;1.30;;;;;;;23.59;100.00;99746.86;1778763;80;21009;-75
2022/07/08 04:50:47;;;;;;;7.67;1.30;;;;;;;23.59;100.00;99744.83;1777602;80;21023;-74
2022/07/08 04:53:13;;;;;;;2.33;1.32;;;;;;;23.64;100.00;99742.83;1781514;80;20929;-75
2022/07/08 04:55:40;;;;;;;5.87;1.65;;;;;;;23.56;100.00;99740.02;1755934;80;21037;-72
2022/07/08 04:58:12;;;;;;;3.67;1.80;;;;;;;23.58;100.00;99739.62;1750931;81;20972;-74
2022/07/08 05:00:38;;;;;;;7.65;1.77;;;;;;;23.62;100.00;99741.83;1747119;81;21510;-73
2022/07/08 05:03:05;;;;;;;2.67;1.15;;;;;;;23.66;100.00;99739.80;1743618;81;21863;-73
2022/07/08 05:05:34;;;;;;;2.55;1.42;;;;;;;23.68;100.00;99743.61;1748754;82;21013;-72
2022/07/08 05:08:01;;;;;;;3.70;1.67;;;;;;;23.71;100.00;99747.82;1741632;81;21029;-75
2022/07/08 05:10:33;;;;;;;1.85;1.50;;;;;;;23.77;100.00;99746.81;1733639;82;21008;-73
2022/07/08 05:13:08;;;;;;;1.25;1.10;;;;;;;23.83;100.00;99748.62;1719943;82;22188;-72
2022/07/08 05:15:37;;;;;;;2.50;1.30;;;;;;;23.83;100.00;99743.77;1731442;82;21907;-72
2022/07/08 05:18:11;;;;;;;1.90;1.35;;;;;;;23.83;100.00;99743.77;1733369;82;20991;-70
2022/07/08 05:20:39;;;;;;;1.95;1.32;;;;;;;23.86;100.00;99742.77;1749666;81;21021;-71
2022/07/08 05:23:08;;;;;;;2.55;1.55;;;;;;;23.86;100.00;99741.36;1729952;82;21525;-73
2022/07/08 05:25:35;;;;;;;2.25;1.20;;;;;;;23.86;100.00;99743.58;1750433;81;20933;-75
2022/07/08 05:28:04;;;;;;;2.30;1.40;;;;;;;23.90;100.00;99736.54;1753842;81;21209;-73
2022/07/08 05:30:35;;;;;;;3.60;1.50;;;;;;;23.97;100.00;99742.13;1755623;81;21413;-72
2022/07/08 05:33:04;;;;;;;3.40;1.50;;;;;;;24.01;100.00;99738.70;1755868;81;20881;-74
2022/07/08 05:35:30;;;;;;;7.65;1.67;;;;;;;23.98;100.00;99741.52;1756161;80;21004;-73
2022/07/08 05:38:00;;;;;;;4.83;1.98;;;;;;;23.97;100.00;99739.93;1755628;81;20948;-73
2022/07/08 05:40:36;;;;;;;5.70;2.42;;;;;;;24.03;100.00;99746.73;1755881;81;21028;-73
2022/07/08 05:43:06;;;;;;;7.47;2.47;;;;;;;24.04;100.00;99749.14;1746891;81;21565;-73
2022/07/08 05:45:34;;;;;;;3.27;1.60;;;;;;;24.07;100.00;99757.37;1735023;82;20962;-73
2022/07/08 05:48:06;;;;;;;5.60;2.17;;;;;;;24.09;100.00;99766.81;1732754;82;21091;-73
2022/07/08 05:50:34;;;;;;;4.72;2.33;;;;;;;24.10;100.00;99768.41;1749624;82;21027;-74
2022/07/08 05:53:01;;;;;;;5.28;2.95;;;;;;;24.12;100.00;99770.22;1730070;82;21073;-74
2022/07/08 05:55:56;;;;;;;3.92;1.70;;;;;;;24.13;100.00;99762.77;1727195;82;21454;-74
2022/07/08 05:58:22;;;;;;;3.90;1.67;;;;;;;24.13;100.00;99761.97;1723680;83;21001;-75
2022/07/08 06:00:52;;;;;;;4.15;1.75;;;;;;;24.10;100.00;99752.94;1723327;83;20989;-72
2022/07/08 06:03:22;;;;;;;2.65;1.45;;;;;;;24.12;100.00;99766.00;1721957;83;20996;-75
2022/07/08 06:05:50;;;;;;;4.15;1.60;;;;;;;24.12;100.00;99764.59;1738685;82;21018;-72
2022/07/08 06:08:20;;;;;;;1.72;1.12;;;;;;;24.22;100.00;99761.56;1738558;82;21502;-73
2022/07/08 06:10:48;;;;;;;2.67;1.32;;;;;;;24.29;100.00;99765.13;1691508;83;20989;-73
2022/07/08 06:13:15;;;;;;;1.35;1.10;;;;;;;24.14;100.00;99765.77;1722313;83;20993;-74
2022/07/08 06:15:44;;;;;;;3.35;1.27;;;;;;;24.28;100.00;99766.36;1739411;80;21446;-74
2022/07/08 06:18:13;;;;;;;4.67;1.15;;;;;;;24.30;100.00;99766.76;1697615;84;22009;-74
2022/07/08 06:20:39;;;;;;;3.30;1.15;;;;;;;24.36;100.00;99763.52;1724945;83;21051;-74
2022/07/08 06:23:11;;;;;;;1.20;0.88;;;;;;;24.39;100.00;99756.47;1743288;82;20972;-75
2022/07/08 06:25:40;;;;;;;2.72;1.10;;;;;;;24.33;100.00;99748.86;1747059;82;21020;-72
2022/07/08 06:28:15;;;;;;;1.25;0.90;;;;;;;24.27;100.00;99743.66;1747217;82;21037;-75
2022/07/08 06:30:45;;;;;;;1.75;1.00;;;;;;;24.21;100.00;99740.27;1747000;82;21122;-74
2022/07/08 06:33:13;;;;;;;1.92;0.93;;;;;;;24.16;100.00;99728.19;1746674;82;20914;-74
2022/07/08 06:35:45;;;;;;;2.90;1.12;;;;;;;24.14;100.00;99724.19;1722303;82;21038;-76
2022/07/08 06:38:16;;;;;;;1.62;0.72;;;;;;;24.15;100.00;99712.52;1723705;83;21140;-74
2022/07/08 06:40:44;;;;;;;19.52;7.40;;;;;;;24.16;100.00;99703.45;1722757;82;21028;-74
2022/07/08 06:43:14;;;;;;;25.48;9.15;;;;;;;24.02;100.00;99698.72;1719302;83;21167;-74
2022/07/08 06:45:42;;;;;;;50.58;14.53;;;;;;;23.93;100.00;99686.49;1720700;82;21278;-71
2022/07/08 06:48:11;;;;;;;22.48;7.72;;;;;;;23.87;100.00;99683.88;1723246;83;21056;-72
2022/07/08 06:50:41;;;;;;;35.68;11.83;;;;;;;23.82;100.00;99699.18;1713519;83;21076;-73
2022/07/08 06:53:16;;;;;;;23.80;8.90;;;;;;;23.78;100.00;99697.00;1712401;83;21657;-71
2022/07/08 06:55:50;;;;;;;11.45;3.80;;;;;;;23.82;100.00;99701.40;1676623;83;21079;-73
2022/07/08 06:58:16;;;;;;;9.53;3.35;;;;;;;23.81;100.00;99703.21;1726270;82;20936;-71
2022/07/08 07:00:50;;;;;;;4.45;1.45;;;;;;;23.77;100.00;99704.63;1736597;82;21454;-73
2022/07/08 07:03:19;;;;;;;2.33;1.50;;;;;;;23.87;100.00;99709.20;1737957;82;20972;-74
2022/07/08 07:05:45;;;;;;;1.80;1.42;;;;;;;23.90;100.00;99702.78;1736650;82;20938;-73
2022/07/08 07:08:14;;;;;;;4.37;1.40;;;;;;;23.96;100.00;99691.30;1734666;82;21136;-71
2022/07/08 07:13:24;;;;;;;2.10;1.22;;;;;;;23.97;100.00;99652.72;1742842;82;20942;-75
2022/07/08 07:15:53;;;;;;;3.85;1.57;;;;;;;23.89;100.00;99614.78;1738452;82;20890;-75
2022/07/08 07:18:21;;;;;;;8.38;1.75;;;;;;;23.77;100.00;99603.38;1736256;81;21066;-75
2022/07/08 07:20:49;;;;;;;2.02;1.20;;;;;;;23.64;100.00;99616.30;1737959;82;21496;-75
2022/07/08 07:23:19;;;;;;;7.67;1.30;;;;;;;23.62;100.00;99649.64;1736697;82;21007;-73
2022/07/08 07:25:47;;;;;;;4.55;1.35;;;;;;;23.67;100.00;99677.34;1750180;81;21448;-75
2022/07/08 07:28:16;;;;;;;4.22;1.00;;;;;;;23.75;100.00;99690.16;1748545;81;20915;-74
2022/07/08 07:30:55;;;;;;;3.05;1.22;;;;;;;23.84;100.00;99675.67;1741846;81;20979;-73
2022/07/08 07:33:28;;;;;;;6.72;1.10;;;;;;;23.88;100.00;99665.82;1737463;81;21517;-76
2022/07/08 07:35:57;;;;;;;2.45;0.65;;;;;;;23.99;100.00;99679.81;1737013;82;20908;-71
2022/07/08 07:38:25;;;;;;;6.47;1.10;;;;;;;24.02;100.00;99680.43;1765502;80;20942;-72
2022/07/08 07:40:51;;;;;;;2.90;0.93;;;;;;;24.04;100.00;99690.05;1759006;80;20929;-72
2022/07/08 07:43:18;;;;;;;6.30;1.05;;;;;;;24.10;100.00;99696.06;1751318;80;21469;-74
2022/07/08 07:45:50;;;;;;;2.45;1.05;;;;;;;24.23;100.00;99694.20;1761865;80;21012;-72
2022/07/08 07:48:21;;;;;;;1.47;0.85;;;;;;;24.30;100.00;99693.58;1733533;80;21134;-72
2022/07/08 07:50:47;;;;;;;2.20;1.35;;;;;;;24.33;100.00;99689.75;1757660;80;21540;-73
2022/07/08 07:53:16;;;;;;;2.60;0.90;;;;;;;24.39;100.00;99702.17;1758368;80;21555;-71
2022/07/08 07:55:44;;;;;;;3.05;1.10;;;;;;;24.47;100.00;99704.32;1732309;81;21513;-72
2022/07/08 07:58:10;;;;;;;5.30;1.57;;;;;;;24.49;100.00;99703.31;1745477;82;22095;-71
2022/07/08 08:00:39;;;;;;;1.98;1.15;;;;;;;24.50;100.00;99715.56;1744903;82;21067;-70
2022/07/08 08:03:14;;;;;;;1.87;0.90;;;;;;;24.52;100.00;99722.19;1746348;82;20898;-70
2022/07/08 08:05:50;;;;;;;;;;;;;;;24.55;100.00;99721.36;1745387;82;20941;-72
2022/07/08 08:08:18;;;;;;;2.08;1.00;;;;;;;24.55;100.00;99709.50;1732145;82;20448;-72
2022/07/08 08:10:47;;;;;;;0.78;0.78;;;;;;;24.50;100.00;99695.05;1745978;82;21166;-71
2022/07/08 08:13:14;;;;;;;2.62;1.30;;;;;;;24.43;100.00;99694.48;1745608;81;21010;-70
2022/07/08 08:15:48;;;;;;;3.30;1.15;;;;;;;24.40;100.00;99689.69;1745389;81;20972;-71
2022/07/08 08:18:20;;;;;;;4.55;0.75;;;;;;;24.43;100.00;99694.48;1744318;82;20982;-71
2022/07/08 08:20:54;;;;;;;2.10;0.80;;;;;;;24.45;100.00;99698.33;1750028;81;21013;-71
2022/07/08 08:23:22;;;;;;;4.97;0.85;;;;;;;24.47;100.00;99691.05;1747275;81;21271;-73
2022/07/08 08:25:52;;;;;;;2.25;1.37;;;;;;;24.49;100.00;99692.05;1745439;81;20948;-71
2022/07/08 08:28:24;;;;;;;1.17;0.93;;;;;;;24.58;100.00;99698.03;1746101;81;20973;-73
2022/07/08 08:31:01;;;;;;;1.20;0.70;;;;;;;24.62;100.00;99699.39;1742318;81;20952;-71
2022/07/08 08:33:29;;;;;;;2.60;0.93;;;;;;;24.70;100.00;99702.38;1747045;81;21490;-74
2022/07/08 08:36:03;;;;;;;2.25;0.90;;;;;;;24.75;100.00;99693.49;1751744;80;21585;-75
2022/07/08 08:38:46;;;;;;;3.30;1.80;;;;;;;24.77;100.00;99694.48;1742849;82;20971;-73
2022/07/08 08:41:14;;;;;;;1.52;0.72;;;;;;;24.82;100.00;99700.27;1745097;82;21084;-74
2022/07/08 08:43:49;;;;;;;1.47;0.80;;;;;;;24.76;100.00;99703.53;1747559;80;20974;-71
2022/07/08 08:46:20;;;;;;;1.37;0.95;;;;;;;24.79;100.00;99699.88;1751637;81;20906;-67
2022/07/08 08:48:48;;;;;;;1.40;0.80;;;;;;;24.89;100.00;99697.41;1747335;81;21016;-70
2022/07/08 08:51:17;;;;;;;1.47;0.70;;;;;;;25.01;100.00;99699.73;1732764;82;20921;-72
2022/07/08 08:53:58;;;;;;;1.95;0.90;;;;;;;25.06;100.00;99700.52;1746158;82;20987;-73
2022/07/08 08:56:27;;;;;;;5.08;0.90;;;;;;;25.17;100.00;99699.80;1764445;80;21450;-72
2022/07/08 08:59:01;;;;;;;2.60;1.00;;;;;;;25.23;100.00;99694.52;1763987;80;21460;-73
2022/07/08 09:01:37;;;;;;;11.15;0.98;;;;;;;25.28;100.00;99686.39;1781459;80;20898;-73
2022/07/08 09:04:11;;;;;;;1.27;0.90;;;;;;;25.24;100.00;99685.64;1771853;80;20934;-75
2022/07/08 09:06:39;;;;;;;4.60;0.75;;;;;;;25.27;100.00;99682.59;1745330;82;21036;-74
2022/07/08 09:09:06;;;;;;;2.40;0.72;;;;;;;25.23;100.00;99684.03;1742784;81;20949;-71
2022/07/08 09:11:33;;;;;;;2.42;0.85;;;;;;;25.25;100.00;99688.64;1756486;79;20966;-73
2022/07/08 09:14:30;;;;;;;1.90;0.90;;;;;;;25.26;100.00;99683.22;1766140;80;21778;-72
2022/07/08 09:17:17;;;;;;;2.67;1.10;;;;;;;25.28;100.00;99676.53;1745231;80;21000;-73
2022/07/08 09:19:49;;;;;;;1.47;0.90;;;;;;;25.36;100.00;99682.10;1741321;82;20975;-70
2022/07/08 09:22:16;;;;;;;1.90;0.57;;;;;;;25.48;100.00;99680.77;1735165;81;21016;-71
2022/07/08 09:24:48;;;;;;;2.52;0.80;;;;;;;25.61;100.00;99682.43;1779936;80;21598;-73
2022/07/08 09:27:15;;;;;;;2.60;0.70;;;;;;;25.72;100.00;99677.52;1766608;79;21499;-74
2022/07/08 09:30:00;;;;;;;3.33;0.85;;;;;;;25.82;100.00;99684.84;1764464;80;21072;-73
2022/07/08 09:32:27;;;;;;;9.83;0.85;;;;;;;25.86;100.00;99678.56;1774646;80;20994;-72
2022/07/08 09:34:54;;;;;;;3.67;0.75;;;;;;;25.90;99.88;99680.70;1769004;80;21482;-74
2022/07/08 09:37:26;;;;;;;2.55;0.90;;;;;;;25.87;98.48;99680.15;1780225;78;21070;-73
2022/07/08 09:39:54;;;;;;;2.72;1.00;;;;;;;25.88;98.10;99678.31;1770404;80;21281;-69
2022/07/08 09:42:20;;;;;;;5.28;1.07;;;;;;;25.88;98.08;99677.50;1783897;80;21509;-73
2022/07/08 09:44:57;;;;;;;2.00;0.68;;;;;;;25.95;100.00;99676.02;1778555;80;21007;-70
2022/07/08 09:47:25;;;;;;;3.80;0.80;;;;;;;26.09;100.00;99682.69;1782208;80;20934;-72
2022/07/08 09:49:53;;;;;;;13.32;1.45;;;;;;;26.21;100.00;99672.25;1703442;80;21453;-71
2022/07/08 09:52:21;;;;;;;2.10;0.68;;;;;;;26.45;100.00;99675.77;1783356;78;21535;-71
2022/07/08 09:55:04;;;;;;;4.70;0.53;;;;;;;26.46;98.28;99681.62;1769621;80;21125;-73
2022/07/08 09:57:31;;;;;;;2.83;0.85;;;;;;;26.52;96.01;99681.92;1770618;80;21009;-68
2022/07/08 09:59:59;;;;;;;4.03;0.75;;;;;;;26.60;95.72;99681.98;1767001;79;20993;-69
2022/07/08 10:02:27;;;;;;;2.55;1.00;;;;;;;26.65;95.70;99677.27;1768754;80;21048;-72
2022/07/08 10:04:55;;;;;;;5.20;1.00;;;;;;;26.67;95.60;99669.17;1774613;79;21123;-74
2022/07/08 10:11:15;;;;;;;2.50;1.00;;;;;;;26.96;92.79;99672.13;1786132;78;20969;-74
2022/07/08 10:13:43;;;;;;;2.20;0.70;;;;;;;27.06;94.50;99680.27;1787864;78;20970;-74
2022/07/08 10:16:12;;;;;;;3.35;0.90;;;;;;;27.09;90.85;99676.59;1800483;78;20993;-77
2022/07/08 10:18:45;;;;;;;1.02;0.80;;;;;;;27.07;92.33;99674.17;1794630;79;21132;-73
2022/07/08 10:21:11;;;;;;;0.82;0.70;;;;;;;27.05;93.75;99675.85;1795689;79;20979;-72
2022/07/08 10:23:55;;;;;;;4.22;0.80;;;;;;;27.14;94.91;99678.12;1794838;78;20980;-73
2022/07/08 10:26:36;;;;;;;3.40;0.90;;;;;;;27.24;94.72;99681.98;1785911;78;21087;-72
2022/07/08 10:29:10;;;;;;;5.17;0.88;;;;;;;27.25;90.89;99679.33;1788105;78;21060;-72
2022/07/08 10:31:54;;;;;;;2.90;1.00;;;;;;;27.25;91.84;99677.30;1793424;78;22205;-72
2022/07/08 10:34:24;;;;;;;4.40;1.02;;;;;;;27.17;87.00;99673.82;1792782;78;21317;-73
2022/07/08 10:36:53;;;;;;;1.02;0.88;;;;;;;27.07;92.11;99677.64;1795892;78;21019;-71
2022/07/08 10:39:39;;;;;;;0.68;0.65;;;;;;;27.10;88.63;99667.69;1791115;78;21088;-78
2022/07/08 10:42:10;;;;;;;4.17;1.37;;;;;;;27.11;88.51;99678.36;1794723;78;21050;-74
2022/07/08 10:44:49;;;;;;;2.83;0.80;;;;;;;27.07;88.62;99672.77;1790187;78;21715;-73
2022/07/08 10:47:24;;;;;;;1.07;0.98;;;;;;;27.05;90.08;99677.27;1764570;79;20929;-74
2022/07/08 10:49:53;;;;;;;2.65;0.95;;;;;;;27.01;90.83;99670.23;1719451;81;21070;-72
2022/07/08 10:52:26;;;;;;;5.08;0.90;;;;;;;27.02;92.96;99672.45;1723675;78;21045;-73
2022/07/08 10:55:14;;;;;;;1.50;0.85;;;;;;;27.09;92.59;99673.14;1800837;77;21095;-74
2022/07/08 10:57:57;;;;;;;1.37;0.80;;;;;;;27.22;93.64;99677.56;1732992;81;21164;-73
2022/07/08 11:00:24;;;;;;;2.72;0.85;;;;;;;27.33;91.64;99672.34;1792539;78;20996;-76
2022/07/08 11:02:50;;;;;;;1.70;0.75;;;;;;;27.37;91.18;99678.70;1779818;79;21536;-74
2022/07/08 11:05:42;;;;;;;1.20;0.80;;;;;;;27.40;91.67;99670.77;1760836;79;21421;-71
2022/07/08 11:08:23;;;;;;;2.10;1.02;;;;;;;27.44;90.38;99673.52;1784522;80;22157;-71
2022/07/08 11:10:55;;;;;;;1.85;1.00;;;;;;;27.49;89.39;99670.20;1764808;80;21005;-72
2022/07/08 11:13:25;;;;;;;4.60;1.02;;;;;;;27.98;90.01;99659.55;1804587;78;21028;-73
2022/07/08 11:15:53;;;;;;;2.58;1.05;;;;;;;28.34;84.69;99666.48;1824029;78;20935;-72
2022/07/08 11:18:24;;;;;;;4.62;1.20;;;;;;;28.43;85.41;99664.63;1826249;77;21035;-72
2022/07/08 11:20:59;;;;;;;6.47;1.12;;;;;;;28.48;88.07;99656.22;1794231;77;20988;-71
2022/07/08 11:23:28;;;;;;;3.25;1.20;;;;;;;28.60;86.60;99660.99;1801171;78;21062;-73
2022/07/08 11:26:00;;;;;;;3.20;1.30;;;;;;;28.78;86.44;99662.77;1827702;77;20969;-73
2022/07/08 11:28:28;;;;;;;5.03;1.10;;;;;;;28.77;83.93;99668.88;1829096;77;21481;-72
2022/07/08 11:31:01;;;;;;;3.15;0.80;;;;;;;28.23;88.13;99659.60;1825050;78;21532;-71
2022/07/08 11:33:40;;;;;;;1.20;0.90;;;;;;;28.29;92.41;99662.08;1806405;79;21071;-73
2022/07/08 11:36:23;;;;;;;3.92;1.00;;;;;;;28.38;90.28;99656.66;1781770;80;21878;-76
2022/07/08 11:38:52;;;;;;;4.17;1.00;;;;;;;28.56;91.91;99655.41;1781084;80;20987;-70
2022/07/08 11:41:21;;;;;;;1.45;1.00;;;;;;;28.72;93.38;99654.62;1809783;79;21009;-72
2022/07/08 11:43:58;;;;;;;3.33;0.93;;;;;;;28.82;89.53;99657.02;1815229;78;21100;-73
2022/07/08 11:46:33;;;;;;;;;;;;;;;28.83;89.50;99651.51;1803307;78;21076;-73
2022/07/08 11:51:49;;;;;;;2.17;1.20;;;;;;;28.78;87.53;99664.83;1776158;80;20881;-72